createdAt,value
2018-09-08T00:01:42.301Z,1.17
2018-09-08T00:04:10.348Z,1.20
2018-09-08T00:06:38.341Z,1.13
2018-09-08T00:09:08.031Z,1.30
2018-09-08T00:11:36.136Z,1.23
2018-09-08T00:14:04.311Z,1.30
2018-09-08T00:16:37.645Z,0.80
2018-09-08T00:19:11.244Z,1.40
2018-09-08T00:21:44.737Z,1.00
2018-09-08T00:24:18.310Z,1.50
2018-09-08T00:26:45.645Z,1.23
2018-09-08T00:29:17.989Z,1.30
2018-09-08T00:31:46.126Z,1.27
2018-09-08T00:34:14.132Z,1.30
2018-09-08T00:36:42.241Z,1.10
2018-09-08T00:39:10.632Z,1.17
2018-09-08T00:41:38.642Z,1.33
2018-09-08T00:44:06.824Z,1.20
2018-09-08T00:46:34.876Z,1.43
2018-09-08T00:49:02.921Z,3.83
2018-09-08T00:51:31.137Z,1.13
2018-09-08T00:53:59.720Z,1.07
2018-09-08T00:56:27.817Z,0.90
2018-09-08T00:59:01.404Z,1.10
2018-09-08T01:01:29.628Z,1.10
2018-09-08T01:03:57.852Z,1.00
2018-09-08T01:06:25.846Z,1.17
2018-09-08T01:08:53.901Z,1.40
2018-09-08T01:11:22.014Z,1.27
2018-09-08T01:13:50.398Z,1.00
2018-09-08T01:16:19.429Z,1.43
2018-09-08T01:18:47.434Z,1.33
2018-09-08T01:21:15.573Z,1.10
2018-09-08T01:23:47.132Z,1.20
2018-09-08T01:26:15.819Z,1.30
2018-09-08T01:28:43.852Z,1.40
2018-09-08T01:31:12.006Z,1.40
2018-09-08T01:33:39.996Z,1.23
2018-09-08T01:36:08.027Z,1.30
2018-09-08T01:38:36.302Z,1.63
2018-09-08T01:41:04.521Z,1.00
2018-09-08T01:43:32.553Z,1.00
2018-09-08T01:46:00.580Z,1.70
2018-09-08T01:48:28.732Z,2.00
2018-09-08T01:50:56.721Z,1.17
2018-09-08T01:53:24.745Z,1.90
2018-09-08T01:55:52.789Z,1.50
2018-09-08T01:58:20.887Z,1.40
2018-09-08T02:00:49.752Z,2.43
2018-09-08T02:03:18.024Z,1.20
2018-09-08T02:05:46.069Z,1.60
2018-09-08T02:08:14.074Z,1.50
2018-09-08T02:10:42.496Z,1.43
2018-09-08T02:13:10.729Z,1.57
2018-09-08T02:15:38.720Z,1.43
2018-09-08T02:18:06.738Z,1.53
2018-09-08T02:20:34.728Z,2.20
2018-09-08T02:23:02.756Z,1.50
2018-09-08T02:25:30.791Z,2.20
2018-09-08T02:27:58.917Z,1.47
2018-09-08T02:30:27.017Z,1.50
2018-09-08T02:32:55.136Z,2.50
2018-09-08T02:35:23.130Z,2.13
2018-09-08T02:37:51.194Z,1.77
2018-09-08T02:40:19.203Z,1.77
2018-09-08T02:42:47.257Z,1.50
2018-09-08T02:45:15.377Z,2.00
2018-09-08T02:47:43.532Z,1.90
2018-09-08T02:50:42.596Z,1.80
2018-09-08T02:53:11.918Z,1.77
2018-09-08T02:55:39.256Z,3.00
2018-09-08T02:58:06.329Z,2.10
2018-09-08T03:00:33.762Z,2.60
2018-09-08T03:03:00.830Z,2.50
2018-09-08T03:05:27.890Z,2.40
2018-09-08T03:07:54.941Z,2.97
2018-09-08T03:10:22.354Z,3.17
2018-09-08T03:12:49.504Z,2.40
2018-09-08T03:15:16.712Z,3.10
2018-09-08T03:17:43.852Z,2.40
2018-09-08T03:20:10.908Z,2.43
2018-09-08T03:22:37.953Z,2.90
2018-09-08T03:25:05.025Z,2.30
2018-09-08T03:27:32.081Z,2.30
2018-09-08T03:29:59.128Z,2.63
2018-09-08T03:32:26.176Z,2.47
2018-09-08T03:34:53.267Z,2.90
2018-09-08T03:37:20.345Z,2.93
2018-09-08T03:39:47.584Z,2.93
2018-09-08T03:42:14.636Z,2.50
2018-09-08T03:44:41.880Z,3.50
2018-09-08T03:47:08.976Z,2.73
2018-09-08T03:49:36.024Z,3.13
2018-09-08T03:52:03.112Z,2.90
2018-09-08T03:54:30.178Z,2.77
2018-09-08T03:56:57.282Z,3.93
2018-09-08T03:59:24.335Z,3.17
2018-09-08T04:01:51.392Z,3.00
2018-09-08T04:04:19.421Z,3.10
2018-09-08T04:06:47.524Z,3.20
2018-09-08T04:09:15.561Z,2.70
2018-09-08T04:11:43.574Z,3.37
2018-09-08T04:14:11.640Z,3.20
2018-09-08T04:16:39.718Z,2.80
2018-09-08T04:19:08.053Z,2.70
2018-09-08T04:21:36.107Z,2.37
2018-09-08T04:24:04.260Z,3.00
2018-09-08T04:26:32.266Z,3.50
2018-09-08T04:29:00.254Z,3.23
2018-09-08T04:31:28.289Z,3.00
2018-09-08T04:36:21.124Z,3.63
2018-09-08T04:38:49.105Z,2.80
2018-09-08T04:41:17.108Z,3.00
2018-09-08T04:43:45.090Z,3.27
2018-09-08T04:46:13.150Z,3.30
2018-09-08T04:48:41.217Z,3.70
2018-09-08T04:53:48.636Z,3.00
2018-09-08T04:56:16.649Z,3.33
2018-09-08T04:58:44.679Z,3.47
2018-09-08T05:01:12.773Z,3.17
2018-09-08T05:03:40.764Z,3.20
2018-09-08T05:06:08.785Z,3.17
2018-09-08T05:08:36.957Z,2.90
2018-09-08T05:11:05.021Z,2.90
2018-09-08T05:13:33.069Z,3.67
2018-09-08T05:16:01.123Z,2.90
2018-09-08T05:18:29.173Z,2.83
2018-09-08T05:20:57.205Z,2.97
2018-09-08T05:23:25.192Z,2.60
2018-09-08T05:25:53.333Z,2.60
2018-09-08T05:28:21.556Z,2.80
2018-09-08T05:30:49.856Z,3.30
2018-09-08T05:33:17.914Z,2.90
2018-09-08T05:35:46.101Z,3.37
2018-09-08T05:38:14.150Z,2.97
2018-09-08T05:40:42.192Z,2.67
2018-09-08T05:43:10.218Z,2.93
2018-09-08T05:45:38.252Z,2.70
2018-09-08T05:48:06.306Z,2.63
2018-09-08T05:50:34.333Z,2.70
2018-09-08T05:53:02.347Z,2.90
2018-09-08T05:55:30.705Z,2.87
2018-09-08T05:57:59.394Z,3.27
2018-09-08T06:00:27.420Z,2.30
2018-09-08T06:02:55.472Z,2.77
2018-09-08T06:05:23.497Z,2.63
2018-09-08T06:07:51.785Z,2.47
2018-09-08T06:10:19.875Z,2.80
2018-09-08T06:12:47.948Z,2.17
2018-09-08T06:15:16.008Z,2.33
2018-09-08T06:17:44.036Z,3.97
2018-09-08T06:20:12.103Z,2.27
2018-09-08T06:22:40.205Z,2.33
2018-09-08T06:25:08.411Z,2.40
2018-09-08T06:27:36.535Z,2.40
2018-09-08T06:30:04.544Z,2.87
2018-09-08T06:32:32.596Z,2.50
2018-09-08T06:35:00.801Z,2.37
2018-09-08T06:37:28.821Z,2.30
2018-09-08T06:39:56.862Z,2.63
2018-09-08T06:42:24.927Z,3.13
2018-09-08T06:44:53.098Z,2.83
2018-09-08T06:47:21.264Z,2.90
2018-09-08T06:49:49.297Z,2.80
2018-09-08T06:52:17.366Z,3.30
2018-09-08T06:54:45.332Z,2.20
2018-09-08T06:57:13.522Z,2.63
2018-09-08T06:59:41.533Z,2.60
2018-09-08T07:02:09.639Z,2.03
2018-09-08T07:04:37.846Z,2.67
2018-09-08T07:07:10.449Z,2.70
2018-09-08T07:09:38.678Z,2.90
2018-09-08T07:12:06.718Z,2.93
2018-09-08T07:14:34.748Z,2.50
2018-09-08T07:17:02.829Z,2.47
2018-09-08T07:19:30.909Z,3.20
2018-09-08T07:21:58.949Z,2.10
2018-09-08T07:24:26.974Z,3.13
2018-09-08T07:26:55.013Z,1.80
2018-09-08T07:29:23.192Z,2.50
2018-09-08T07:31:51.208Z,2.07
2018-09-08T07:34:19.491Z,2.37
2018-09-08T07:36:47.602Z,2.57
2018-09-08T07:39:15.729Z,2.70
2018-09-08T07:41:43.864Z,2.17
2018-09-08T07:44:11.889Z,2.50
2018-09-08T07:46:39.913Z,3.27
2018-09-08T07:49:07.957Z,3.00
2018-09-08T07:51:36.034Z,2.40
2018-09-08T07:54:04.202Z,3.17
2018-09-08T07:56:32.199Z,3.10
2018-09-08T07:59:00.268Z,3.83
2018-09-08T08:01:28.446Z,3.47
2018-09-08T08:03:56.475Z,3.20
2018-09-08T08:06:24.513Z,3.87
2018-09-08T08:08:52.541Z,3.80
2018-09-08T08:11:20.884Z,3.53
2018-09-08T08:13:49.113Z,3.17
2018-09-08T08:16:17.121Z,3.40
2018-09-08T08:18:45.188Z,3.40
2018-09-08T08:21:13.254Z,2.80
2018-09-08T08:23:41.765Z,2.80
2018-09-08T08:26:09.786Z,3.03
2018-09-08T08:28:37.813Z,2.60
2018-09-08T08:31:05.891Z,2.30
2018-09-08T08:33:34.006Z,3.03
2018-09-08T08:36:02.411Z,2.90
2018-09-08T08:38:30.645Z,2.53
2018-09-08T08:40:58.811Z,2.07
2018-09-08T08:43:27.010Z,2.77
2018-09-08T08:45:55.054Z,2.40
2018-09-08T08:48:23.085Z,2.80
2018-09-08T08:51:02.710Z,2.30
2018-09-08T08:53:42.372Z,2.67
2018-09-08T08:56:10.732Z,2.63
2018-09-08T08:58:39.041Z,2.60
2018-09-08T09:01:07.256Z,2.13
2018-09-08T09:03:35.478Z,2.03
2018-09-08T09:06:03.741Z,2.60
2018-09-08T09:08:32.160Z,2.53
2018-09-08T09:10:59.831Z,2.10
2018-09-08T09:13:28.599Z,2.10
2018-09-08T09:15:56.563Z,2.87
2018-09-08T09:19:36.095Z,2.30
2018-09-08T09:22:16.962Z,2.00
2018-09-08T09:25:00.852Z,2.50
2018-09-08T09:27:29.432Z,1.97
2018-09-08T09:29:57.757Z,1.93
2018-09-08T09:32:25.724Z,1.93
2018-09-08T09:34:53.764Z,2.30
2018-09-08T09:37:21.882Z,1.90
2018-09-08T09:39:50.465Z,2.20
2018-09-08T09:42:18.511Z,2.50
2018-09-08T09:44:46.649Z,1.90
2018-09-08T09:47:14.832Z,1.70
2018-09-08T09:49:44.005Z,1.77
2018-09-08T09:52:12.042Z,1.30
2018-09-08T09:54:40.150Z,1.77
2018-09-08T09:57:08.201Z,2.20
2018-09-08T09:59:36.283Z,1.30
2018-09-08T10:03:07.545Z,1.50
2018-09-08T10:05:36.312Z,2.00
2018-09-08T10:08:04.535Z,1.57
2018-09-08T10:10:32.642Z,1.80
2018-09-08T10:13:00.963Z,1.43
2018-09-08T10:15:29.234Z,2.13
2018-09-08T10:17:57.317Z,1.70
2018-09-08T10:20:25.578Z,1.47
2018-09-08T10:22:53.588Z,1.70
2018-09-08T10:25:21.820Z,2.10
2018-09-08T10:27:50.053Z,1.60
2018-09-08T10:30:18.384Z,1.40
2018-09-08T10:32:47.032Z,2.40
2018-09-08T10:35:15.323Z,1.77
2018-09-08T10:37:43.348Z,3.03
2018-09-08T10:40:12.382Z,2.00
2018-09-08T10:42:40.552Z,1.73
2018-09-08T10:45:09.170Z,1.80
2018-09-08T10:47:37.612Z,2.20
2018-09-08T10:50:05.976Z,1.30
2018-09-08T10:52:37.347Z,1.63
2018-09-08T10:55:05.380Z,1.40
2018-09-08T10:57:33.452Z,1.30
2018-09-08T11:00:02.409Z,1.13
2018-09-08T11:02:31.235Z,1.53
2018-09-08T11:04:59.239Z,1.33
2018-09-08T11:07:27.346Z,1.50
2018-09-08T11:09:55.501Z,1.20
2018-09-08T11:12:23.505Z,1.40
2018-09-08T11:14:51.528Z,2.07
2018-09-08T11:17:19.637Z,2.20
2018-09-08T11:19:47.713Z,1.50
2018-09-08T11:22:15.976Z,1.47
2018-09-08T11:24:44.007Z,1.77
2018-09-08T11:27:12.033Z,1.40
2018-09-08T11:29:40.056Z,2.20
2018-09-08T11:32:08.271Z,1.83
2018-09-08T11:34:36.353Z,2.03
2018-09-08T11:37:04.464Z,2.20
2018-09-08T11:39:32.545Z,1.70
2018-09-08T11:42:00.669Z,1.67
2018-09-08T11:44:28.837Z,2.17
2018-09-08T11:46:56.909Z,1.60
2018-09-08T11:49:24.934Z,1.90
2018-09-08T11:51:53.021Z,1.90
2018-09-08T11:54:21.160Z,1.93
2018-09-08T11:56:49.244Z,2.10
2018-09-08T11:59:17.391Z,1.80
2018-09-08T12:01:45.410Z,1.40
2018-09-08T12:04:13.424Z,1.67
2018-09-08T12:06:41.591Z,1.70
2018-09-08T12:09:11.077Z,2.20
2018-09-08T12:11:39.194Z,1.70
2018-09-08T12:14:07.413Z,2.40
2018-09-08T12:16:35.437Z,1.83
2018-09-08T12:19:03.721Z,1.83
2018-09-08T12:21:31.744Z,1.40
2018-09-08T12:23:59.739Z,1.97
2018-09-08T12:26:27.759Z,1.23
2018-09-08T12:28:56.956Z,1.57
2018-09-08T12:31:24.957Z,1.77
2018-09-08T12:33:52.984Z,1.53
2018-09-08T12:36:21.192Z,1.60
2018-09-08T12:38:49.257Z,1.60
2018-09-08T12:41:17.420Z,1.60
2018-09-08T12:43:45.454Z,2.20
2018-09-08T12:46:12.671Z,2.00
2018-09-08T12:48:40.775Z,2.03
2018-09-08T12:51:08.914Z,1.60
2018-09-08T12:53:36.981Z,2.43
2018-09-08T12:56:05.186Z,2.40
2018-09-08T12:58:33.217Z,1.60
2018-09-08T13:01:01.235Z,2.13
2018-09-08T13:03:29.367Z,1.90
2018-09-08T13:05:57.563Z,2.17
2018-09-08T13:08:25.724Z,2.30
2018-09-08T13:10:53.766Z,1.73
2018-09-08T13:13:21.957Z,2.43
2018-09-08T13:15:50.209Z,1.87
2018-09-08T13:18:18.420Z,2.03
2018-09-08T13:20:46.588Z,1.50
2018-09-08T13:23:14.601Z,2.10
2018-09-08T13:25:42.830Z,2.03
2018-09-08T13:28:10.889Z,1.73
2018-09-08T13:30:38.984Z,2.20
2018-09-08T13:33:07.132Z,2.10
2018-09-08T13:35:35.189Z,2.60
2018-09-08T13:38:03.221Z,1.90
2018-09-08T13:40:31.267Z,1.73
2018-09-08T13:42:59.359Z,2.00
2018-09-08T13:45:27.513Z,1.80
2018-09-08T13:47:55.598Z,1.70
2018-09-08T13:50:23.688Z,2.20
2018-09-08T13:52:51.762Z,2.23
2018-09-08T13:55:19.778Z,2.47
2018-09-08T13:57:47.962Z,2.80
2018-09-08T14:00:16.013Z,2.27
2018-09-08T14:02:44.080Z,1.83
2018-09-08T14:05:12.289Z,2.53
2018-09-08T14:07:44.573Z,2.83
2018-09-08T14:10:12.681Z,1.97
2018-09-08T14:12:40.772Z,2.90
2018-09-08T14:15:08.867Z,1.90
2018-09-08T14:17:36.873Z,2.40
2018-09-08T14:20:05.213Z,1.90
2018-09-08T14:22:33.449Z,2.50
2018-09-08T14:25:01.477Z,1.70
2018-09-08T14:27:29.552Z,1.77
2018-09-08T14:29:57.601Z,2.40
2018-09-08T14:32:25.653Z,2.98
2018-09-08T14:34:53.776Z,2.17
2018-09-08T14:37:21.764Z,1.80
2018-09-08T14:39:49.861Z,2.00
2018-09-08T14:42:17.897Z,2.30
2018-09-08T14:44:46.024Z,2.90
2018-09-08T14:47:14.271Z,2.27
2018-09-08T14:49:42.405Z,1.97
2018-09-08T14:52:10.593Z,1.77
2018-09-08T14:54:38.721Z,1.87
2018-09-08T14:57:06.784Z,2.33
2018-09-08T14:59:34.810Z,2.20
2018-09-08T15:02:02.938Z,1.97
2018-09-08T15:04:31.177Z,2.27
2018-09-08T15:06:59.225Z,1.63
2018-09-08T15:09:27.264Z,2.10
2018-09-08T15:11:55.446Z,2.10
2018-09-08T15:14:23.477Z,2.40
2018-09-08T15:16:51.597Z,1.80
2018-09-08T15:19:19.642Z,2.33
2018-09-08T15:21:47.721Z,1.73
2018-09-08T15:24:15.808Z,1.83
2018-09-08T15:26:43.899Z,1.83
2018-09-08T15:29:12.073Z,2.40
2018-09-08T15:31:40.222Z,2.10
2018-09-08T15:34:08.292Z,2.17
2018-09-08T15:36:36.359Z,2.23
2018-09-08T15:39:06.311Z,2.03
2018-09-08T15:41:34.403Z,1.80
2018-09-08T15:44:02.480Z,1.87
2018-09-08T15:46:30.593Z,2.97
2018-09-08T15:48:58.647Z,1.87
2018-09-08T15:51:26.805Z,2.30
2018-09-08T15:53:55.107Z,3.20
2018-09-08T15:56:23.236Z,1.97
2018-09-08T15:58:51.274Z,2.03
2018-09-08T16:01:19.285Z,2.10
2018-09-08T16:03:47.353Z,2.20
2018-09-08T16:06:15.523Z,2.70
2018-09-08T16:08:43.634Z,2.53
2018-09-08T16:11:11.668Z,2.13
2018-09-08T16:13:39.754Z,2.30
2018-09-08T16:16:07.879Z,2.53
2018-09-08T16:18:35.919Z,2.30
2018-09-08T16:21:03.920Z,2.17
2018-09-08T16:23:32.117Z,2.50
2018-09-08T16:26:00.156Z,2.50
2018-09-08T16:28:28.230Z,2.00
2018-09-08T16:30:56.217Z,2.20
2018-09-08T16:33:24.267Z,2.27
2018-09-08T16:35:52.320Z,2.20
2018-09-08T16:38:20.349Z,2.23
2018-09-08T16:40:48.354Z,1.73
2018-09-08T16:43:16.360Z,1.87
2018-09-08T16:45:44.384Z,2.30
2018-09-08T16:48:12.529Z,2.30
2018-09-08T16:50:40.659Z,2.00
2018-09-08T16:53:08.783Z,2.10
2018-09-08T16:55:36.850Z,1.60
2018-09-08T16:58:05.022Z,2.47
2018-09-08T17:00:32.958Z,2.17
2018-09-08T17:03:00.929Z,2.77
2018-09-08T17:05:29.032Z,2.13
2018-09-08T17:07:57.056Z,2.37
2018-09-08T17:10:25.285Z,1.87
2018-09-08T17:12:53.263Z,1.77
2018-09-08T17:15:21.307Z,2.60
2018-09-08T17:17:49.309Z,2.10
2018-09-08T17:20:17.400Z,2.10
2018-09-08T17:22:45.468Z,2.63
2018-09-08T17:25:13.574Z,1.73
2018-09-08T17:27:41.724Z,2.43
2018-09-08T17:30:09.777Z,1.97
2018-09-08T17:32:37.799Z,1.87
2018-09-08T17:35:05.857Z,2.20
2018-09-08T17:37:33.884Z,1.93
2018-09-08T17:40:02.006Z,1.77
2018-09-08T17:42:30.029Z,2.17
2018-09-08T17:44:58.063Z,2.03
2018-09-08T17:47:26.073Z,2.20
2018-09-08T17:49:54.080Z,2.07
2018-09-08T17:52:22.085Z,2.20
2018-09-08T17:54:50.202Z,2.80
2018-09-08T17:57:18.278Z,2.37
2018-09-08T17:59:46.281Z,2.67
2018-09-08T18:02:14.270Z,2.23
2018-09-08T18:04:42.321Z,2.30
2018-09-08T18:07:13.619Z,2.37
2018-09-08T18:09:41.673Z,2.50
2018-09-08T18:12:09.737Z,1.90
2018-09-08T18:14:37.967Z,2.40
2018-09-08T18:17:06.155Z,2.13
2018-09-08T18:19:34.181Z,2.43
2018-09-08T18:22:02.194Z,2.50
2018-09-08T18:24:30.204Z,2.20
2018-09-08T18:26:58.210Z,2.30
2018-09-08T18:29:26.389Z,2.10
2018-09-08T18:31:54.392Z,2.97
2018-09-08T18:34:22.481Z,2.90
2018-09-08T18:36:50.521Z,3.07
2018-09-08T18:39:18.521Z,2.40
2018-09-08T18:41:46.549Z,2.60
2018-09-08T18:44:14.524Z,2.70
2018-09-08T18:46:42.737Z,1.90
2018-09-08T18:49:10.748Z,2.40
2018-09-08T18:51:38.756Z,2.60
2018-09-08T18:54:06.762Z,2.13
2018-09-08T18:56:34.802Z,2.40
2018-09-08T18:59:02.865Z,2.40
2018-09-08T19:01:30.885Z,2.63
2018-09-08T19:03:58.885Z,2.30
2018-09-08T19:06:27.005Z,2.10
2018-09-08T19:08:55.144Z,2.20
2018-09-08T19:11:23.259Z,2.37
2018-09-08T19:13:51.321Z,2.53
2018-09-08T19:16:19.409Z,2.20
2018-09-08T19:18:47.481Z,2.90
2018-09-08T19:21:15.506Z,2.10
2018-09-08T19:23:43.573Z,2.00
2018-09-08T19:26:11.632Z,2.50
2018-09-08T19:28:39.914Z,3.00
2018-09-08T19:31:07.923Z,2.33
2018-09-08T19:33:35.961Z,2.30
2018-09-08T19:36:03.997Z,2.60
2018-09-08T19:38:32.033Z,3.00
2018-09-08T19:41:00.161Z,2.53
2018-09-08T19:43:28.177Z,2.47
2018-09-08T19:45:56.200Z,2.87
2018-09-08T19:48:24.217Z,2.20
2018-09-08T19:50:52.329Z,2.53
2018-09-08T19:53:25.900Z,2.47
2018-09-08T19:55:54.028Z,2.40
2018-09-08T19:58:27.473Z,2.10
2018-09-08T20:00:55.490Z,2.60
2018-09-08T20:03:23.562Z,2.47
2018-09-08T20:05:51.556Z,2.63
2018-09-08T20:08:19.585Z,2.20
2018-09-08T20:10:47.720Z,3.80
2018-09-08T20:13:15.805Z,2.57
2018-09-08T20:15:43.930Z,2.20
2018-09-08T20:18:11.968Z,2.57
2018-09-08T20:20:40.008Z,2.27
2018-09-08T20:23:08.073Z,2.97
2018-09-08T20:25:36.086Z,2.40
2018-09-08T20:28:04.185Z,2.67
2018-09-08T20:30:32.238Z,2.50
2018-09-08T20:33:00.332Z,2.43
2018-09-08T20:35:28.360Z,2.33
2018-09-08T20:37:56.361Z,2.30
2018-09-08T20:40:24.380Z,2.03
2018-09-08T20:42:52.393Z,2.70
2018-09-08T20:45:20.574Z,2.90
2018-09-08T20:47:48.656Z,2.40
2018-09-08T20:50:16.770Z,3.20
2018-09-08T20:52:44.819Z,2.97
2018-09-08T20:55:12.820Z,2.83
2018-09-08T20:57:40.825Z,3.07
2018-09-08T21:00:08.840Z,3.00
2018-09-08T21:02:36.840Z,3.07
2018-09-08T21:05:04.953Z,2.80
2018-09-08T21:07:33.022Z,3.03
2018-09-08T21:10:01.039Z,3.93
2018-09-08T21:12:29.121Z,3.10
2018-09-08T21:14:57.154Z,3.30
2018-09-08T21:17:25.173Z,3.27
2018-09-08T21:19:53.199Z,3.20
2018-09-08T21:22:21.505Z,3.27
2018-09-08T21:24:49.706Z,3.40
2018-09-08T21:27:17.908Z,3.20
2018-09-08T21:29:45.927Z,4.30
2018-09-08T21:32:14.209Z,3.50
2018-09-08T21:34:42.283Z,4.00
2018-09-08T21:37:10.417Z,3.33
2018-09-08T21:39:38.718Z,2.87
2018-09-08T21:42:06.797Z,2.67
2018-09-08T21:44:34.823Z,3.30
2018-09-08T21:47:05.910Z,2.97
2018-09-08T21:49:30.947Z,2.97
2018-09-08T21:51:59.327Z,3.00
2018-09-08T21:54:27.541Z,3.70
2018-09-08T21:56:55.628Z,3.80
2018-09-08T21:59:23.720Z,4.37
2018-09-08T22:01:51.954Z,3.70
2018-09-08T22:04:19.957Z,3.50
2018-09-08T22:06:48.004Z,3.67
2018-09-08T22:09:16.050Z,5.03
2018-09-08T22:11:44.062Z,3.40
2018-09-08T22:14:12.099Z,5.03
2018-09-08T22:16:40.136Z,3.87
2018-09-08T22:19:08.189Z,4.30
2018-09-08T22:21:36.393Z,3.93
2018-09-08T22:24:04.545Z,3.57
2018-09-08T22:26:33.161Z,3.63
2018-09-08T22:29:01.174Z,2.80
2018-09-08T22:31:29.392Z,2.80
2018-09-08T22:33:57.498Z,2.80
2018-09-08T22:36:25.864Z,2.73
2018-09-08T22:38:54.179Z,3.03
2018-09-08T22:41:22.193Z,2.73
2018-09-08T22:43:50.161Z,2.67
2018-09-08T22:46:18.201Z,2.00
2018-09-08T22:48:46.245Z,2.57
2018-09-08T22:51:14.315Z,2.50
2018-09-08T22:53:42.272Z,2.53
2018-09-08T22:56:10.365Z,2.70
2018-09-08T22:58:38.418Z,2.70
2018-09-08T23:01:06.595Z,2.70
2018-09-08T23:03:34.644Z,3.37
2018-09-08T23:06:02.768Z,2.80
2018-09-08T23:08:30.988Z,3.10
2018-09-08T23:10:59.134Z,3.00
2018-09-08T23:13:27.261Z,2.87
2018-09-08T23:15:55.480Z,3.17
2018-09-08T23:18:23.581Z,4.17
2018-09-08T23:20:51.594Z,2.70
2018-09-08T23:23:19.594Z,2.97
2018-09-08T23:25:47.618Z,3.20
2018-09-08T23:28:15.683Z,3.20
2018-09-08T23:30:43.752Z,3.10
2018-09-08T23:33:11.969Z,3.07
2018-09-08T23:35:40.184Z,3.43
2018-09-08T23:38:08.500Z,2.80
2018-09-08T23:40:36.503Z,2.90
2018-09-08T23:43:04.511Z,2.80
2018-09-08T23:45:32.537Z,2.93
2018-09-08T23:48:00.559Z,3.40
2018-09-08T23:50:28.748Z,3.03
2018-09-08T23:52:56.704Z,3.00
2018-09-08T23:55:24.844Z,2.70
2018-09-08T23:57:53.155Z,3.20
